• Join FlightAware (Why Join?)
  • Login
  • US Flag 
10:41PM EDT


 

Airport Tracker/Info


-or-


 

Live Flight TrackerFlight Track Log ✈ AFR1619 ✈ 07-May-2013 ✈ EDDF / FRA - LFPG / CDG

Flight Track Log - Related Links

Times and Time Zones

All times are in EDT time to prevent confusion due to time zone crossing. See the AFR1619 flight status page for this flight to view local times or setup timezone preferences in your user account.

Time Position Orientation Groundspeed Altitude Reporting Facility
EDT Latitude Longitude Course Direction KTS MPH feet Rate Location/Type
06:37AM 50.0116 8.4378 258° West  Level Estimated
06:38AM 49.9967 8.3325 258° West  Level Estimated
06:39AM 49.9817 8.2273 258° West  Level Estimated
06:40AM 49.9666 8.1221 257° West  Level Estimated
06:41AM 49.9514 8.0170 257° West  Level Estimated
06:42AM 49.9361 7.9120 257° West  Level Estimated
06:43AM 49.9207 7.8070 257° West  Level Estimated
06:44AM 49.9052 7.7021 257° West  Level Estimated
06:45AM 49.8896 7.5973 257° West  Level Estimated
06:46AM 49.8739 7.4926 257° West  Level Estimated
06:47AM 49.8582 7.3879 257° West  Level Estimated
06:48AM 49.8423 7.2832 257° West  Level Estimated
06:49AM 49.8263 7.1787 257° West  Level Estimated
06:50AM 49.8103 7.0742 257° West  Level Estimated
06:51AM 49.7941 6.9698 257° West  Level Estimated
06:52AM 49.7779 6.8655 256° West  Level Estimated
06:53AM 49.7616 6.7612 256° West  Level Estimated
06:54AM 49.7451 6.6570 256° West  Level Estimated
06:55AM 49.7286 6.5529 256° West  Level Estimated
06:56AM 49.7150 6.4679 256° West  Level Estimated
06:57AM 49.7014 6.3829 256° West  Level Estimated
06:58AM 49.6877 6.2980 256° West  Level Estimated
06:59AM 49.6740 6.2131 256° West  Level Estimated
07:00AM 49.6602 6.1283 256° West  Level Estimated
07:01AM 49.6463 6.0435 256° West  Level Estimated
07:02AM 49.6324 5.9588 256° West  Level Estimated
07:03AM 49.6184 5.8741 256° West  Level Estimated
07:04AM 49.6043 5.7895 256° West  Level Estimated
07:05AM 49.5902 5.7049 256° West  Level Estimated
07:06AM 49.5760 5.6204 256° West  Level Estimated
07:07AM 49.5618 5.5359 255° West  Level Estimated
07:08AM 49.5475 5.4515 255° West  Level Estimated
07:09AM 49.5331 5.3671 255° West  Level Estimated
07:10AM 49.5187 5.2828 255° West  Level Estimated
07:11AM 49.5033 5.1935 255° West  Level Estimated
07:12AM 49.4879 5.1042 255° West  Level Estimated
07:13AM 49.4724 5.0150 255° West  Level Estimated
07:14AM 49.4568 4.9259 255° West  Level Estimated
07:15AM 49.4412 4.8368 255° West  Level Estimated
07:16AM 49.4255 4.7478 255° West  Level Estimated
07:17AM 49.4097 4.6588 255° West  Level Estimated
07:18AM 49.3939 4.5699 255° West  Level Estimated
07:19AM 49.3780 4.4810 255° West  Level Estimated
07:20AM 49.3620 4.3922 255° West  Level Estimated
07:21AM 49.3460 4.3035 255° West  Level Estimated
07:22AM 49.3298 4.2148 254° West  Level Estimated
07:23AM 49.3137 4.1262 254° West  Level Estimated
07:24AM 49.2974 4.0376 254° West  Level Estimated
07:25AM 49.2811 3.9491 254° West  Level Estimated
07:26AM 49.2647 3.8607 254° West  Level Estimated
07:27AM 49.2488 3.7748 254° West  Level Estimated
07:28AM 49.2327 3.6890 254° West  Level Estimated
07:29AM 49.2166 3.6033 254° West  Level Estimated
07:30AM 49.2005 3.5177 254° West  Level Estimated
07:31AM 49.1843 3.4321 254° West  Level Estimated
07:32AM 49.1680 3.3465 254° West  Level Estimated
07:33AM 49.1516 3.2610 254° West  Level Estimated
07:34AM 49.1352 3.1756 254° West  Level Estimated
07:35AM 49.1187 3.0902 254° West  Level Estimated
07:36AM 49.1022 3.0049 254° West  Level Estimated
07:37AM 49.0856 2.9196 253° West  Level Estimated
07:38AM 49.0689 2.8344 253° West  Level Estimated
07:39AM 49.0522 2.7492 253° West  Level Estimated
07:40AM 49.0354 2.6641 253° West  Level Estimated
07:41AM 49.0186 2.5791 253° West  Level Estimated
07:42AM 49.0128 2.5500 253° West  Level Estimated
07:43AM 49.0128 2.5500 180° South  Level Estimated
07:44AM 49.0128 2.5500 180° South  Level Estimated